sensor_id;sensor_type;location;lat;lon;timestamp;temperature;humidity
7572;DHT22;3827;49.928;8.548;2023-04-16T00:01:05;8.80;99.90
7572;DHT22;3827;49.928;8.548;2023-04-16T00:03:32;8.80;99.90
7572;DHT22;3827;49.928;8.548;2023-04-16T00:05:59;8.80;99.90
7572;DHT22;3827;49.928;8.548;2023-04-16T00:08:26;8.80;99.90
7572;DHT22;3827;49.928;8.548;2023-04-16T00:10:54;8.70;99.90
7572;DHT22;3827;49.928;8.548;2023-04-16T00:13:21;8.70;99.90
7572;DHT22;3827;49.928;8.548;2023-04-16T00:15:48;8.70;99.90
7572;DHT22;3827;49.928;8.548;2023-04-16T00:18:15;8.70;99.90
7572;DHT22;3827;49.928;8.548;2023-04-16T00:20:41;8.70;99.90
7572;DHT22;3827;49.928;8.548;2023-04-16T00:23:08;8.70;99.90
7572;DHT22;3827;49.928;8.548;2023-04-16T00:25:35;8.70;99.90
7572;DHT22;3827;49.928;8.548;2023-04-16T00:28:04;8.70;99.90
7572;DHT22;3827;49.928;8.548;2023-04-16T00:30:31;8.70;99.90
7572;DHT22;3827;49.928;8.548;2023-04-16T00:32:57;8.70;99.90
7572;DHT22;3827;49.928;8.548;2023-04-16T00:35:24;8.70;99.90
7572;DHT22;3827;49.928;8.548;2023-04-16T00:37:51;8.70;99.90
7572;DHT22;3827;49.928;8.548;2023-04-16T00:40:18;8.70;99.90
7572;DHT22;3827;49.928;8.548;2023-04-16T00:42:45;8.70;99.90
7572;DHT22;3827;49.928;8.548;2023-04-16T00:45:13;8.70;99.90
7572;DHT22;3827;49.928;8.548;2023-04-16T00:47:40;8.60;99.90
7572;DHT22;3827;49.928;8.548;2023-04-16T00:50:07;8.70;99.90
7572;DHT22;3827;49.928;8.548;2023-04-16T00:52:34;8.60;99.90
7572;DHT22;3827;49.928;8.548;2023-04-16T00:55:01;8.70;99.90
7572;DHT22;3827;49.928;8.548;2023-04-16T00:57:29;8.60;99.90
7572;DHT22;3827;49.928;8.548;2023-04-16T00:59:55;8.60;99.90
7572;DHT22;3827;49.928;8.548;2023-04-16T01:02:24;8.60;99.90
7572;DHT22;3827;49.928;8.548;2023-04-16T01:04:51;8.60;99.90
7572;DHT22;3827;49.928;8.548;2023-04-16T01:07:18;8.60;99.90
7572;DHT22;3827;49.928;8.548;2023-04-16T01:09:45;8.60;99.90
7572;DHT22;3827;49.928;8.548;2023-04-16T01:12:12;8.70;99.90
7572;DHT22;3827;49.928;8.548;2023-04-16T01:14:39;8.60;99.90
7572;DHT22;3827;49.928;8.548;2023-04-16T01:17:06;8.60;99.90
7572;DHT22;3827;49.928;8.548;2023-04-16T01:19:34;8.70;99.90
7572;DHT22;3827;49.928;8.548;2023-04-16T01:22:03;8.60;99.90
7572;DHT22;3827;49.928;8.548;2023-04-16T01:24:30;8.60;99.90
7572;DHT22;3827;49.928;8.548;2023-04-16T01:26:57;8.90;99.90
7572;DHT22;3827;49.928;8.548;2023-04-16T01:29:24;8.60;99.90
7572;DHT22;3827;49.928;8.548;2023-04-16T01:31:51;8.60;99.90
7572;DHT22;3827;49.928;8.548;2023-04-16T01:34:18;8.60;99.90
7572;DHT22;3827;49.928;8.548;2023-04-16T01:36:45;8.70;99.90
7572;DHT22;3827;49.928;8.548;2023-04-16T01:39:13;8.60;99.90
7572;DHT22;3827;49.928;8.548;2023-04-16T01:41:41;8.70;99.90
7572;DHT22;3827;49.928;8.548;2023-04-16T01:44:08;8.60;99.90
7572;DHT22;3827;49.928;8.548;2023-04-16T01:46:36;8.70;99.90
7572;DHT22;3827;49.928;8.548;2023-04-16T01:49:04;8.60;99.90
7572;DHT22;3827;49.928;8.548;2023-04-16T01:51:31;8.60;99.90
7572;DHT22;3827;49.928;8.548;2023-04-16T01:53:58;8.60;99.90
7572;DHT22;3827;49.928;8.548;2023-04-16T01:56:26;8.60;99.90
7572;DHT22;3827;49.928;8.548;2023-04-16T01:58:53;8.60;99.90
7572;DHT22;3827;49.928;8.548;2023-04-16T02:01:20;8.60;99.90
7572;DHT22;3827;49.928;8.548;2023-04-16T02:03:47;8.80;99.90
7572;DHT22;3827;49.928;8.548;2023-04-16T02:06:14;8.60;99.90
7572;DHT22;3827;49.928;8.548;2023-04-16T02:08:40;8.60;99.90
7572;DHT22;3827;49.928;8.548;2023-04-16T02:11:07;8.60;99.90
7572;DHT22;3827;49.928;8.548;2023-04-16T02:13:36;8.60;99.90
7572;DHT22;3827;49.928;8.548;2023-04-16T02:16:03;8.60;99.90
7572;DHT22;3827;49.928;8.548;2023-04-16T02:18:29;10.60;99.90
7572;DHT22;3827;49.928;8.548;2023-04-16T02:20:57;8.60;99.90
7572;DHT22;3827;49.928;8.548;2023-04-16T02:23:24;8.50;99.90
7572;DHT22;3827;49.928;8.548;2023-04-16T02:25:51;8.50;99.90
7572;DHT22;3827;49.928;8.548;2023-04-16T02:28:18;8.60;99.90
7572;DHT22;3827;49.928;8.548;2023-04-16T02:30:46;8.90;99.90
7572;DHT22;3827;49.928;8.548;2023-04-16T02:33:13;8.60;99.90
7572;DHT22;3827;49.928;8.548;2023-04-16T02:35:40;8.60;99.90
7572;DHT22;3827;49.928;8.548;2023-04-16T02:38:07;8.60;99.90
7572;DHT22;3827;49.928;8.548;2023-04-16T02:40:34;8.60;99.90
7572;DHT22;3827;49.928;8.548;2023-04-16T02:43:01;8.50;99.90
7572;DHT22;3827;49.928;8.548;2023-04-16T02:45:28;8.60;99.90
7572;DHT22;3827;49.928;8.548;2023-04-16T02:47:57;8.90;99.90
7572;DHT22;3827;49.928;8.548;2023-04-16T02:50:25;8.60;99.90
7572;DHT22;3827;49.928;8.548;2023-04-16T02:52:52;8.60;99.90
7572;DHT22;3827;49.928;8.548;2023-04-16T02:55:18;8.60;99.90
7572;DHT22;3827;49.928;8.548;2023-04-16T02:57:45;8.60;99.90
7572;DHT22;3827;49.928;8.548;2023-04-16T03:00:12;8.60;99.90
7572;DHT22;3827;49.928;8.548;2023-04-16T03:02:39;8.60;99.90
7572;DHT22;3827;49.928;8.548;2023-04-16T03:05:08;8.60;99.90
7572;DHT22;3827;49.928;8.548;2023-04-16T03:07:36;8.60;99.90
7572;DHT22;3827;49.928;8.548;2023-04-16T03:10:06;8.60;99.90
7572;DHT22;3827;49.928;8.548;2023-04-16T03:12:33;8.60;99.90
7572;DHT22;3827;49.928;8.548;2023-04-16T03:15:00;8.60;99.90
7572;DHT22;3827;49.928;8.548;2023-04-16T03:17:27;8.60;99.90
7572;DHT22;3827;49.928;8.548;2023-04-16T03:19:54;8.60;99.90
7572;DHT22;3827;49.928;8.548;2023-04-16T03:22:22;8.60;99.90
7572;DHT22;3827;49.928;8.548;2023-04-16T03:24:49;8.60;99.90
7572;DHT22;3827;49.928;8.548;2023-04-16T03:27:16;8.60;99.90
7572;DHT22;3827;49.928;8.548;2023-04-16T03:29:43;8.60;99.90
7572;DHT22;3827;49.928;8.548;2023-04-16T03:32:10;8.60;99.90
7572;DHT22;3827;49.928;8.548;2023-04-16T03:34:37;8.60;99.90
7572;DHT22;3827;49.928;8.548;2023-04-16T03:37:04;8.70;99.90
7572;DHT22;3827;49.928;8.548;2023-04-16T03:39:32;8.60;99.90
7572;DHT22;3827;49.928;8.548;2023-04-16T03:41:59;8.60;99.90
7572;DHT22;3827;49.928;8.548;2023-04-16T03:44:26;8.70;99.90
7572;DHT22;3827;49.928;8.548;2023-04-16T03:46:53;8.70;99.90
7572;DHT22;3827;49.928;8.548;2023-04-16T03:49:20;8.70;99.90
7572;DHT22;3827;49.928;8.548;2023-04-16T03:51:47;8.60;99.90
7572;DHT22;3827;49.928;8.548;2023-04-16T03:54:13;8.60;99.90
7572;DHT22;3827;49.928;8.548;2023-04-16T03:56:41;8.60;99.90
7572;DHT22;3827;49.928;8.548;2023-04-16T03:59:08;8.70;99.90
7572;DHT22;3827;49.928;8.548;2023-04-16T04:01:35;8.60;99.90
7572;DHT22;3827;49.928;8.548;2023-04-16T04:04:02;8.60;99.90
7572;DHT22;3827;49.928;8.548;2023-04-16T04:06:29;8.60;99.90
7572;DHT22;3827;49.928;8.548;2023-04-16T04:08:55;8.60;99.90
7572;DHT22;3827;49.928;8.548;2023-04-16T04:11:22;8.60;99.90
7572;DHT22;3827;49.928;8.548;2023-04-16T04:13:50;8.60;99.90
7572;DHT22;3827;49.928;8.548;2023-04-16T04:16:17;8.60;99.90
7572;DHT22;3827;49.928;8.548;2023-04-16T04:18:44;8.50;99.90
7572;DHT22;3827;49.928;8.548;2023-04-16T04:21:10;8.50;99.90
7572;DHT22;3827;49.928;8.548;2023-04-16T04:23:37;8.50;99.90
7572;DHT22;3827;49.928;8.548;2023-04-16T04:26:06;8.50;99.90
7572;DHT22;3827;49.928;8.548;2023-04-16T04:28:33;8.60;99.90
7572;DHT22;3827;49.928;8.548;2023-04-16T04:31:01;8.60;99.90
7572;DHT22;3827;49.928;8.548;2023-04-16T04:33:28;8.60;99.90
7572;DHT22;3827;49.928;8.548;2023-04-16T04:35:55;8.50;99.90
7572;DHT22;3827;49.928;8.548;2023-04-16T04:38:22;8.50;99.90
7572;DHT22;3827;49.928;8.548;2023-04-16T04:40:50;8.50;99.90
7572;DHT22;3827;49.928;8.548;2023-04-16T04:43:17;8.50;99.90
7572;DHT22;3827;49.928;8.548;2023-04-16T04:45:43;8.50;99.90
7572;DHT22;3827;49.928;8.548;2023-04-16T04:48:12;8.50;99.90
7572;DHT22;3827;49.928;8.548;2023-04-16T04:50:40;8.50;99.90
7572;DHT22;3827;49.928;8.548;2023-04-16T04:53:07;8.50;99.90
7572;DHT22;3827;49.928;8.548;2023-04-16T04:55:35;8.50;99.90
7572;DHT22;3827;49.928;8.548;2023-04-16T04:58:03;8.50;99.90
7572;DHT22;3827;49.928;8.548;2023-04-16T05:00:30;8.50;99.90
7572;DHT22;3827;49.928;8.548;2023-04-16T05:02:57;8.50;99.90
7572;DHT22;3827;49.928;8.548;2023-04-16T05:05:25;8.70;99.90
7572;DHT22;3827;49.928;8.548;2023-04-16T05:07:52;8.60;99.90
7572;DHT22;3827;49.928;8.548;2023-04-16T05:10:19;8.60;99.90
7572;DHT22;3827;49.928;8.548;2023-04-16T05:12:46;8.60;99.90
7572;DHT22;3827;49.928;8.548;2023-04-16T05:15:13;8.60;99.90
7572;DHT22;3827;49.928;8.548;2023-04-16T05:17:40;8.60;99.90
7572;DHT22;3827;49.928;8.548;2023-04-16T05:20:08;8.60;99.90
7572;DHT22;3827;49.928;8.548;2023-04-16T05:22:36;8.70;99.90
7572;DHT22;3827;49.928;8.548;2023-04-16T05:25:03;8.60;99.90
7572;DHT22;3827;49.928;8.548;2023-04-16T05:27:30;8.60;99.90
7572;DHT22;3827;49.928;8.548;2023-04-16T05:29:57;8.70;99.90
7572;DHT22;3827;49.928;8.548;2023-04-16T05:32:24;8.70;99.90
7572;DHT22;3827;49.928;8.548;2023-04-16T05:34:51;8.70;99.90
7572;DHT22;3827;49.928;8.548;2023-04-16T05:37:18;8.70;99.90
7572;DHT22;3827;49.928;8.548;2023-04-16T05:39:46;8.90;99.90
7572;DHT22;3827;49.928;8.548;2023-04-16T05:42:13;8.70;99.90
7572;DHT22;3827;49.928;8.548;2023-04-16T05:44:40;8.80;99.90
7572;DHT22;3827;49.928;8.548;2023-04-16T05:47:07;8.80;99.90
7572;DHT22;3827;49.928;8.548;2023-04-16T05:49:34;8.80;99.90
7572;DHT22;3827;49.928;8.548;2023-04-16T05:52:01;8.80;99.90
7572;DHT22;3827;49.928;8.548;2023-04-16T05:54:28;8.80;99.90
7572;DHT22;3827;49.928;8.548;2023-04-16T05:56:56;8.80;99.90
7572;DHT22;3827;49.928;8.548;2023-04-16T05:59:23;8.90;99.90
7572;DHT22;3827;49.928;8.548;2023-04-16T06:01:50;8.80;99.90
7572;DHT22;3827;49.928;8.548;2023-04-16T06:04:17;8.80;99.90
7572;DHT22;3827;49.928;8.548;2023-04-16T06:06:44;8.80;99.90
7572;DHT22;3827;49.928;8.548;2023-04-16T06:09:10;8.80;99.90
7572;DHT22;3827;49.928;8.548;2023-04-16T06:11:37;8.80;99.90
7572;DHT22;3827;49.928;8.548;2023-04-16T06:14:05;8.80;99.90
7572;DHT22;3827;49.928;8.548;2023-04-16T06:16:32;8.80;99.90
7572;DHT22;3827;49.928;8.548;2023-04-16T06:18:59;8.90;99.90
7572;DHT22;3827;49.928;8.548;2023-04-16T06:21:26;8.80;99.90
7572;DHT22;3827;49.928;8.548;2023-04-16T06:23:54;8.80;99.90
7572;DHT22;3827;49.928;8.548;2023-04-16T06:26:20;8.90;99.90
7572;DHT22;3827;49.928;8.548;2023-04-16T06:28:48;8.90;99.90
7572;DHT22;3827;49.928;8.548;2023-04-16T06:31:16;8.90;99.90
7572;DHT22;3827;49.928;8.548;2023-04-16T06:33:43;9.40;99.90
7572;DHT22;3827;49.928;8.548;2023-04-16T06:36:09;9.00;99.90
7572;DHT22;3827;49.928;8.548;2023-04-16T06:38:36;9.00;99.90
7572;DHT22;3827;49.928;8.548;2023-04-16T06:41:03;9.00;99.90
7572;DHT22;3827;49.928;8.548;2023-04-16T06:43:30;9.00;99.90
7572;DHT22;3827;49.928;8.548;2023-04-16T06:45:58;9.10;99.90
7572;DHT22;3827;49.928;8.548;2023-04-16T06:48:26;9.10;99.90
7572;DHT22;3827;49.928;8.548;2023-04-16T06:50:53;9.20;99.90
7572;DHT22;3827;49.928;8.548;2023-04-16T06:53:20;9.20;99.90
7572;DHT22;3827;49.928;8.548;2023-04-16T06:55:47;9.30;99.90
7572;DHT22;3827;49.928;8.548;2023-04-16T06:58:14;9.30;99.90
7572;DHT22;3827;49.928;8.548;2023-04-16T07:00:41;9.20;99.90
7572;DHT22;3827;49.928;8.548;2023-04-16T07:03:07;9.20;99.90
7572;DHT22;3827;49.928;8.548;2023-04-16T07:05:36;9.20;99.90
7572;DHT22;3827;49.928;8.548;2023-04-16T07:08:02;9.00;99.90
7572;DHT22;3827;49.928;8.548;2023-04-16T07:10:30;9.00;99.90
7572;DHT22;3827;49.928;8.548;2023-04-16T07:12:56;8.90;99.90
7572;DHT22;3827;49.928;8.548;2023-04-16T07:15:25;8.80;99.90
7572;DHT22;3827;49.928;8.548;2023-04-16T07:17:52;8.70;99.90
7572;DHT22;3827;49.928;8.548;2023-04-16T07:20:19;8.50;99.90
7572;DHT22;3827;49.928;8.548;2023-04-16T07:22:47;8.40;99.90
7572;DHT22;3827;49.928;8.548;2023-04-16T07:25:14;8.30;99.90
7572;DHT22;3827;49.928;8.548;2023-04-16T07:27:41;8.30;99.90
7572;DHT22;3827;49.928;8.548;2023-04-16T07:30:08;8.30;99.90
7572;DHT22;3827;49.928;8.548;2023-04-16T07:32:35;8.20;99.90
7572;DHT22;3827;49.928;8.548;2023-04-16T07:35:02;8.20;99.90
7572;DHT22;3827;49.928;8.548;2023-04-16T07:37:29;8.20;99.90
7572;DHT22;3827;49.928;8.548;2023-04-16T07:39:57;8.10;99.90
7572;DHT22;3827;49.928;8.548;2023-04-16T07:42:25;8.10;99.90
7572;DHT22;3827;49.928;8.548;2023-04-16T07:44:52;8.10;99.90
7572;DHT22;3827;49.928;8.548;2023-04-16T07:47:19;8.10;99.90
7572;DHT22;3827;49.928;8.548;2023-04-16T07:49:47;8.20;99.90
7572;DHT22;3827;49.928;8.548;2023-04-16T07:52:15;8.20;99.90
7572;DHT22;3827;49.928;8.548;2023-04-16T07:54:41;8.20;99.90
7572;DHT22;3827;49.928;8.548;2023-04-16T07:57:10;8.20;99.90
7572;DHT22;3827;49.928;8.548;2023-04-16T07:59:37;8.20;99.90
7572;DHT22;3827;49.928;8.548;2023-04-16T08:02:04;8.20;99.90
7572;DHT22;3827;49.928;8.548;2023-04-16T08:04:33;8.30;99.90
7572;DHT22;3827;49.928;8.548;2023-04-16T08:07:00;8.20;99.90
7572;DHT22;3827;49.928;8.548;2023-04-16T08:09:26;8.20;99.90
7572;DHT22;3827;49.928;8.548;2023-04-16T08:12:15;8.30;99.90
7572;DHT22;3827;49.928;8.548;2023-04-16T08:14:42;8.60;99.90
7572;DHT22;3827;49.928;8.548;2023-04-16T08:17:09;8.20;99.90
7572;DHT22;3827;49.928;8.548;2023-04-16T08:19:36;8.30;99.90
7572;DHT22;3827;49.928;8.548;2023-04-16T08:22:08;8.20;99.90
7572;DHT22;3827;49.928;8.548;2023-04-16T08:24:35;8.30;99.90
7572;DHT22;3827;49.928;8.548;2023-04-16T08:27:02;8.30;99.90
7572;DHT22;3827;49.928;8.548;2023-04-16T08:29:31;8.30;99.90
7572;DHT22;3827;49.928;8.548;2023-04-16T08:31:58;8.30;99.90
7572;DHT22;3827;49.928;8.548;2023-04-16T08:34:25;8.40;99.90
7572;DHT22;3827;49.928;8.548;2023-04-16T08:36:52;8.40;99.90
7572;DHT22;3827;49.928;8.548;2023-04-16T08:39:20;8.40;99.90
7572;DHT22;3827;49.928;8.548;2023-04-16T08:41:47;8.40;99.90
7572;DHT22;3827;49.928;8.548;2023-04-16T08:44:19;8.40;99.90
7572;DHT22;3827;49.928;8.548;2023-04-16T08:46:48;8.50;99.90
7572;DHT22;3827;49.928;8.548;2023-04-16T08:49:16;8.50;99.90
7572;DHT22;3827;49.928;8.548;2023-04-16T08:51:49;8.90;99.90
7572;DHT22;3827;49.928;8.548;2023-04-16T08:54:25;8.50;99.90
7572;DHT22;3827;49.928;8.548;2023-04-16T08:56:55;8.60;99.90
7572;DHT22;3827;49.928;8.548;2023-04-16T08:59:24;8.70;99.90
7572;DHT22;3827;49.928;8.548;2023-04-16T09:01:55;8.70;99.90
7572;DHT22;3827;49.928;8.548;2023-04-16T09:04:25;8.70;99.90
7572;DHT22;3827;49.928;8.548;2023-04-16T09:06:53;8.80;99.90
7572;DHT22;3827;49.928;8.548;2023-04-16T09:09:20;8.80;99.90
7572;DHT22;3827;49.928;8.548;2023-04-16T09:11:50;8.80;99.90
7572;DHT22;3827;49.928;8.548;2023-04-16T09:14:18;8.90;99.90
7572;DHT22;3827;49.928;8.548;2023-04-16T09:16:46;8.90;99.90
7572;DHT22;3827;49.928;8.548;2023-04-16T09:19:14;8.90;99.90
7572;DHT22;3827;49.928;8.548;2023-04-16T09:21:44;9.00;99.90
7572;DHT22;3827;49.928;8.548;2023-04-16T09:24:11;9.00;99.90
7572;DHT22;3827;49.928;8.548;2023-04-16T09:26:39;9.00;99.90
7572;DHT22;3827;49.928;8.548;2023-04-16T09:29:07;9.30;99.90
7572;DHT22;3827;49.928;8.548;2023-04-16T09:31:35;9.10;99.90
7572;DHT22;3827;49.928;8.548;2023-04-16T09:34:02;9.10;99.90
7572;DHT22;3827;49.928;8.548;2023-04-16T09:36:32;9.20;99.90
7572;DHT22;3827;49.928;8.548;2023-04-16T09:39:00;9.20;99.90
7572;DHT22;3827;49.928;8.548;2023-04-16T09:41:29;9.30;99.90
7572;DHT22;3827;49.928;8.548;2023-04-16T09:43:57;9.30;99.90
7572;DHT22;3827;49.928;8.548;2023-04-16T09:46:28;9.40;99.90
7572;DHT22;3827;49.928;8.548;2023-04-16T09:48:55;9.40;99.90
7572;DHT22;3827;49.928;8.548;2023-04-16T09:51:22;9.40;99.90
7572;DHT22;3827;49.928;8.548;2023-04-16T09:53:52;9.90;99.90
7572;DHT22;3827;49.928;8.548;2023-04-16T09:56:23;9.50;99.90
7572;DHT22;3827;49.928;8.548;2023-04-16T09:58:55;9.60;99.90
7572;DHT22;3827;49.928;8.548;2023-04-16T10:01:23;9.60;99.90
7572;DHT22;3827;49.928;8.548;2023-04-16T10:03:52;9.70;99.90
7572;DHT22;3827;49.928;8.548;2023-04-16T10:06:22;9.70;99.90
7572;DHT22;3827;49.928;8.548;2023-04-16T10:08:52;9.80;99.90
7572;DHT22;3827;49.928;8.548;2023-04-16T10:11:21;9.80;99.90
7572;DHT22;3827;49.928;8.548;2023-04-16T10:13:48;9.90;99.90
7572;DHT22;3827;49.928;8.548;2023-04-16T10:16:16;9.90;99.90
7572;DHT22;3827;49.928;8.548;2023-04-16T10:18:44;9.90;99.90
7572;DHT22;3827;49.928;8.548;2023-04-16T10:21:11;9.90;99.90
7572;DHT22;3827;49.928;8.548;2023-04-16T10:23:40;9.90;99.90
7572;DHT22;3827;49.928;8.548;2023-04-16T10:26:09;10.00;99.90
7572;DHT22;3827;49.928;8.548;2023-04-16T10:28:36;10.20;99.90
7572;DHT22;3827;49.928;8.548;2023-04-16T10:31:04;10.00;99.90
7572;DHT22;3827;49.928;8.548;2023-04-16T10:33:35;10.10;99.90
7572;DHT22;3827;49.928;8.548;2023-04-16T10:36:08;10.10;99.90
7572;DHT22;3827;49.928;8.548;2023-04-16T10:38:38;10.20;99.90
7572;DHT22;3827;49.928;8.548;2023-04-16T10:41:06;10.20;99.90
7572;DHT22;3827;49.928;8.548;2023-04-16T10:43:38;10.40;99.90
7572;DHT22;3827;49.928;8.548;2023-04-16T10:46:19;10.30;99.90
7572;DHT22;3827;49.928;8.548;2023-04-16T10:48:47;10.50;99.90
7572;DHT22;3827;49.928;8.548;2023-04-16T10:51:23;10.30;99.90
7572;DHT22;3827;49.928;8.548;2023-04-16T10:53:53;10.30;99.90
7572;DHT22;3827;49.928;8.548;2023-04-16T10:56:23;10.30;99.90
7572;DHT22;3827;49.928;8.548;2023-04-16T10:58:53;10.30;99.90
7572;DHT22;3827;49.928;8.548;2023-04-16T11:01:29;10.30;99.90
7572;DHT22;3827;49.928;8.548;2023-04-16T11:03:58;10.40;99.90
7572;DHT22;3827;49.928;8.548;2023-04-16T11:06:27;10.50;99.90
7572;DHT22;3827;49.928;8.548;2023-04-16T11:08:56;10.40;99.90
7572;DHT22;3827;49.928;8.548;2023-04-16T11:11:23;10.50;99.90
7572;DHT22;3827;49.928;8.548;2023-04-16T11:13:55;10.50;99.90
7572;DHT22;3827;49.928;8.548;2023-04-16T11:16:24;10.50;99.90
7572;DHT22;3827;49.928;8.548;2023-04-16T11:18:51;10.50;99.90
7572;DHT22;3827;49.928;8.548;2023-04-16T11:21:18;10.50;99.90
7572;DHT22;3827;49.928;8.548;2023-04-16T11:23:47;10.50;99.90
7572;DHT22;3827;49.928;8.548;2023-04-16T11:26:24;10.60;99.90
7572;DHT22;3827;49.928;8.548;2023-04-16T11:28:52;10.50;99.90
7572;DHT22;3827;49.928;8.548;2023-04-16T11:31:21;10.60;99.90
7572;DHT22;3827;49.928;8.548;2023-04-16T11:33:48;10.60;99.90
7572;DHT22;3827;49.928;8.548;2023-04-16T11:36:15;10.50;99.90
7572;DHT22;3827;49.928;8.548;2023-04-16T11:38:42;10.40;99.90
7572;DHT22;3827;49.928;8.548;2023-04-16T11:41:10;10.40;99.90
7572;DHT22;3827;49.928;8.548;2023-04-16T11:43:36;10.40;99.90
7572;DHT22;3827;49.928;8.548;2023-04-16T11:46:04;10.40;99.90
7572;DHT22;3827;49.928;8.548;2023-04-16T11:48:50;10.30;99.90
7572;DHT22;3827;49.928;8.548;2023-04-16T11:51:17;10.20;99.90
7572;DHT22;3827;49.928;8.548;2023-04-16T11:53:47;11.70;99.90
7572;DHT22;3827;49.928;8.548;2023-04-16T11:56:14;10.30;99.90
7572;DHT22;3827;49.928;8.548;2023-04-16T11:58:42;10.20;99.90
7572;DHT22;3827;49.928;8.548;2023-04-16T12:01:09;10.20;99.90
7572;DHT22;3827;49.928;8.548;2023-04-16T12:03:37;10.20;99.90
7572;DHT22;3827;49.928;8.548;2023-04-16T12:06:08;10.30;99.90
7572;DHT22;3827;49.928;8.548;2023-04-16T12:08:35;10.40;99.90
7572;DHT22;3827;49.928;8.548;2023-04-16T12:11:02;10.50;99.90
7572;DHT22;3827;49.928;8.548;2023-04-16T12:13:29;10.50;99.90
7572;DHT22;3827;49.928;8.548;2023-04-16T12:15:56;10.70;99.90
7572;DHT22;3827;49.928;8.548;2023-04-16T12:18:23;10.80;99.90
7572;DHT22;3827;49.928;8.548;2023-04-16T12:20:51;11.00;99.90
7572;DHT22;3827;49.928;8.548;2023-04-16T12:23:23;11.10;99.90
7572;DHT22;3827;49.928;8.548;2023-04-16T12:25:50;11.20;99.90
7572;DHT22;3827;49.928;8.548;2023-04-16T12:28:27;11.40;99.90
7572;DHT22;3827;49.928;8.548;2023-04-16T12:30:54;11.30;99.90
7572;DHT22;3827;49.928;8.548;2023-04-16T12:33:21;11.30;99.90
7572;DHT22;3827;49.928;8.548;2023-04-16T12:35:48;11.20;99.90
7572;DHT22;3827;49.928;8.548;2023-04-16T12:38:15;11.20;99.90
7572;DHT22;3827;49.928;8.548;2023-04-16T12:40:44;11.30;99.90
7572;DHT22;3827;49.928;8.548;2023-04-16T12:43:11;11.10;99.90
7572;DHT22;3827;49.928;8.548;2023-04-16T12:45:38;11.10;99.90
7572;DHT22;3827;49.928;8.548;2023-04-16T12:48:06;11.00;99.90
7572;DHT22;3827;49.928;8.548;2023-04-16T12:50:33;11.00;99.90
7572;DHT22;3827;49.928;8.548;2023-04-16T12:52:59;10.90;99.90
7572;DHT22;3827;49.928;8.548;2023-04-16T12:55:26;10.80;99.90
7572;DHT22;3827;49.928;8.548;2023-04-16T12:57:54;10.80;99.90
7572;DHT22;3827;49.928;8.548;2023-04-16T13:00:21;10.80;99.90
7572;DHT22;3827;49.928;8.548;2023-04-16T13:02:48;10.80;99.90
7572;DHT22;3827;49.928;8.548;2023-04-16T13:05:15;10.70;99.90
7572;DHT22;3827;49.928;8.548;2023-04-16T13:07:43;10.80;99.90
7572;DHT22;3827;49.928;8.548;2023-04-16T13:10:11;10.70;99.90
7572;DHT22;3827;49.928;8.548;2023-04-16T13:12:38;10.70;99.90
7572;DHT22;3827;49.928;8.548;2023-04-16T13:15:07;10.70;99.90
7572;DHT22;3827;49.928;8.548;2023-04-16T13:17:35;10.70;99.90
7572;DHT22;3827;49.928;8.548;2023-04-16T13:20:01;10.70;99.90
7572;DHT22;3827;49.928;8.548;2023-04-16T13:22:28;10.70;99.90
7572;DHT22;3827;49.928;8.548;2023-04-16T13:24:55;10.70;99.90
7572;DHT22;3827;49.928;8.548;2023-04-16T13:27:22;10.80;99.90
7572;DHT22;3827;49.928;8.548;2023-04-16T13:29:49;10.80;99.90
7572;DHT22;3827;49.928;8.548;2023-04-16T13:32:17;10.90;99.90
7572;DHT22;3827;49.928;8.548;2023-04-16T13:34:44;11.00;99.90
7572;DHT22;3827;49.928;8.548;2023-04-16T13:37:11;11.10;99.90
7572;DHT22;3827;49.928;8.548;2023-04-16T13:39:38;11.20;99.90
7572;DHT22;3827;49.928;8.548;2023-04-16T13:42:05;11.50;99.90
7572;DHT22;3827;49.928;8.548;2023-04-16T13:44:32;11.80;99.90
7572;DHT22;3827;49.928;8.548;2023-04-16T13:46:59;12.50;99.90
7572;DHT22;3827;49.928;8.548;2023-04-16T13:49:27;12.00;99.90
7572;DHT22;3827;49.928;8.548;2023-04-16T13:51:54;12.30;99.90
7572;DHT22;3827;49.928;8.548;2023-04-16T13:54:20;12.60;99.90
7572;DHT22;3827;49.928;8.548;2023-04-16T13:56:48;12.80;99.90
7572;DHT22;3827;49.928;8.548;2023-04-16T13:59:15;13.10;99.90
7572;DHT22;3827;49.928;8.548;2023-04-16T14:01:42;13.20;99.90
7572;DHT22;3827;49.928;8.548;2023-04-16T14:04:09;13.30;99.90
7572;DHT22;3827;49.928;8.548;2023-04-16T14:06:37;13.30;99.90
7572;DHT22;3827;49.928;8.548;2023-04-16T14:09:04;13.20;99.90
7572;DHT22;3827;49.928;8.548;2023-04-16T14:11:31;13.30;99.90
7572;DHT22;3827;49.928;8.548;2023-04-16T14:13:58;13.20;99.90
7572;DHT22;3827;49.928;8.548;2023-04-16T14:16:25;13.20;99.90
7572;DHT22;3827;49.928;8.548;2023-04-16T14:18:51;13.00;99.90
7572;DHT22;3827;49.928;8.548;2023-04-16T14:21:18;12.70;99.90
7572;DHT22;3827;49.928;8.548;2023-04-16T14:23:46;12.50;99.90
7572;DHT22;3827;49.928;8.548;2023-04-16T14:26:13;12.50;99.90
7572;DHT22;3827;49.928;8.548;2023-04-16T14:28:40;12.60;99.90
7572;DHT22;3827;49.928;8.548;2023-04-16T14:31:07;12.40;99.90
7572;DHT22;3827;49.928;8.548;2023-04-16T14:33:34;12.30;99.90
7572;DHT22;3827;49.928;8.548;2023-04-16T14:36:02;12.30;99.90
7572;DHT22;3827;49.928;8.548;2023-04-16T14:38:29;12.30;99.90
7572;DHT22;3827;49.928;8.548;2023-04-16T14:40:58;12.30;99.90
7572;DHT22;3827;49.928;8.548;2023-04-16T14:43:24;12.10;99.90
7572;DHT22;3827;49.928;8.548;2023-04-16T14:45:51;12.00;99.90
7572;DHT22;3827;49.928;8.548;2023-04-16T14:48:18;12.00;99.90
7572;DHT22;3827;49.928;8.548;2023-04-16T14:50:45;11.90;99.90
7572;DHT22;3827;49.928;8.548;2023-04-16T14:53:12;11.80;99.90
7572;DHT22;3827;49.928;8.548;2023-04-16T14:55:39;11.70;99.90
7572;DHT22;3827;49.928;8.548;2023-04-16T14:58:07;11.60;99.90
7572;DHT22;3827;49.928;8.548;2023-04-16T15:00:35;11.60;99.90
7572;DHT22;3827;49.928;8.548;2023-04-16T15:03:02;11.60;99.90
7572;DHT22;3827;49.928;8.548;2023-04-16T15:05:29;11.60;99.90
7572;DHT22;3827;49.928;8.548;2023-04-16T15:07:56;11.60;99.90
7572;DHT22;3827;49.928;8.548;2023-04-16T15:10:22;11.70;99.90
7572;DHT22;3827;49.928;8.548;2023-04-16T15:12:49;11.70;99.90
7572;DHT22;3827;49.928;8.548;2023-04-16T15:15:18;11.80;99.90
7572;DHT22;3827;49.928;8.548;2023-04-16T15:17:45;11.80;99.90
7572;DHT22;3827;49.928;8.548;2023-04-16T15:20:12;12.00;99.90
7572;DHT22;3827;49.928;8.548;2023-04-16T15:22:39;11.80;99.90
7572;DHT22;3827;49.928;8.548;2023-04-16T15:25:07;11.90;99.90
7572;DHT22;3827;49.928;8.548;2023-04-16T15:27:34;11.80;99.90
7572;DHT22;3827;49.928;8.548;2023-04-16T15:30:01;11.90;99.90
7572;DHT22;3827;49.928;8.548;2023-04-16T15:32:30;11.90;99.90
7572;DHT22;3827;49.928;8.548;2023-04-16T15:34:57;12.10;99.90
7572;DHT22;3827;49.928;8.548;2023-04-16T15:37:24;12.30;99.90
7572;DHT22;3827;49.928;8.548;2023-04-16T15:39:51;12.60;99.90
7572;DHT22;3827;49.928;8.548;2023-04-16T15:42:18;12.70;99.90
7572;DHT22;3827;49.928;8.548;2023-04-16T15:44:45;12.90;99.90
7572;DHT22;3827;49.928;8.548;2023-04-16T15:47:12;13.10;99.90
7572;DHT22;3827;49.928;8.548;2023-04-16T15:49:40;13.20;99.90
7572;DHT22;3827;49.928;8.548;2023-04-16T15:52:08;13.40;99.90
7572;DHT22;3827;49.928;8.548;2023-04-16T15:54:35;13.40;99.90
7572;DHT22;3827;49.928;8.548;2023-04-16T15:57:02;13.40;99.90
7572;DHT22;3827;49.928;8.548;2023-04-16T15:59:29;13.40;99.90
7572;DHT22;3827;49.928;8.548;2023-04-16T16:01:56;13.50;99.90
7572;DHT22;3827;49.928;8.548;2023-04-16T16:04:23;13.60;99.90
7572;DHT22;3827;49.928;8.548;2023-04-16T16:06:52;13.60;99.90
7572;DHT22;3827;49.928;8.548;2023-04-16T16:09:19;13.60;99.90
7572;DHT22;3827;49.928;8.548;2023-04-16T16:11:50;13.60;99.90
7572;DHT22;3827;49.928;8.548;2023-04-16T16:14:18;14.10;99.90